createdAt,value
2018-04-20T00:01:03.816Z,15.88
2018-04-20T00:03:32.231Z,15.79
2018-04-20T00:06:00.668Z,15.73
2018-04-20T00:08:29.129Z,15.91
2018-04-20T00:10:57.553Z,15.83
2018-04-20T00:13:26.022Z,15.75
2018-04-20T00:15:54.507Z,15.66
2018-04-20T00:18:22.951Z,15.48
2018-04-20T00:20:51.379Z,15.41
2018-04-20T00:23:19.809Z,15.25
2018-04-20T00:25:52.443Z,15.14
2018-04-20T00:28:20.871Z,15.10
2018-04-20T00:30:49.236Z,15.05
2018-04-20T00:33:17.667Z,15.34
2018-04-20T00:35:48.019Z,15.48
2018-04-20T00:38:16.496Z,15.72
2018-04-20T00:40:44.911Z,15.75
2018-04-20T00:43:13.376Z,15.83
2018-04-20T00:45:43.957Z,15.72
2018-04-20T00:48:12.399Z,15.45
2018-04-20T00:50:42.997Z,15.12
2018-04-20T00:53:11.455Z,15.06
2018-04-20T00:55:41.955Z,14.96
2018-04-20T00:58:10.391Z,15.00
2018-04-20T01:00:38.897Z,14.96
2018-04-20T01:03:07.341Z,15.03
2018-04-20T01:05:35.806Z,14.89
2018-04-20T01:08:06.407Z,14.73
2018-04-20T01:10:34.855Z,14.60
2018-04-20T01:13:05.329Z,14.58
2018-04-20T01:15:35.655Z,14.40
2018-04-20T01:18:04.094Z,14.24
2018-04-20T01:20:32.534Z,14.07
2018-04-20T01:23:00.990Z,14.39
2018-04-20T01:25:29.417Z,14.34
2018-04-20T01:28:00.017Z,14.35
2018-04-20T01:30:28.468Z,14.04
2018-04-20T01:32:59.036Z,13.93
2018-04-20T01:35:27.575Z,13.78
2018-04-20T01:37:55.971Z,13.86
2018-04-20T01:40:26.445Z,13.78
2018-04-20T01:42:54.888Z,13.74
2018-04-20T01:45:23.282Z,13.68
2018-04-20T01:47:51.710Z,13.64
2018-04-20T01:50:20.151Z,13.61
2018-04-20T01:52:50.694Z,13.61
2018-04-20T01:55:19.156Z,13.63
2018-04-20T01:57:49.719Z,13.52
2018-04-20T02:00:18.202Z,13.42
2018-04-20T02:02:46.631Z,13.39
2018-04-20T02:05:15.043Z,13.35
2018-04-20T02:07:45.542Z,13.30
2018-04-20T02:10:16.183Z,13.25
2018-04-20T02:12:46.315Z,13.25
2018-04-20T02:15:16.862Z,13.42
2018-04-20T02:17:45.286Z,13.31
2018-04-20T02:20:15.871Z,13.44
2018-04-20T02:22:46.048Z,13.26
2018-04-20T02:25:14.472Z,12.98
2018-04-20T02:27:45.007Z,12.90
2018-04-20T02:30:15.599Z,12.89
2018-04-20T02:32:46.128Z,12.90
2018-04-20T02:35:14.665Z,12.72
2018-04-20T02:37:45.223Z,12.66
2018-04-20T02:40:15.823Z,12.86
2018-04-20T02:42:44.241Z,12.91
2018-04-20T02:45:14.941Z,13.00
2018-04-20T02:47:45.504Z,12.99
2018-04-20T02:50:13.984Z,12.74
2018-04-20T02:52:46.168Z,12.51
2018-04-20T02:55:14.744Z,12.17
2018-04-20T02:57:43.134Z,12.01
2018-04-20T03:00:11.569Z,11.98
2018-04-20T03:02:44.310Z,11.85
2018-04-20T03:05:12.723Z,11.70
2018-04-20T03:07:41.170Z,11.85
2018-04-20T03:10:09.591Z,11.89
2018-04-20T03:12:38.002Z,11.81
2018-04-20T03:15:06.412Z,11.75
2018-04-20T03:17:34.844Z,12.01
2018-04-20T03:20:03.288Z,12.08
2018-04-20T03:22:33.796Z,12.04
2018-04-20T03:25:04.387Z,11.80
2018-04-20T03:27:32.860Z,11.62
2018-04-20T03:30:01.299Z,11.52
2018-04-20T03:32:31.896Z,11.49
2018-04-20T03:35:00.339Z,11.53
2018-04-20T03:37:30.830Z,11.74
2018-04-20T03:40:05.714Z,11.64
2018-04-20T03:42:34.127Z,11.81
2018-04-20T03:45:04.767Z,11.65
2018-04-20T03:47:35.295Z,11.51
2018-04-20T03:50:03.775Z,11.36
2018-04-20T03:52:32.192Z,11.35
2018-04-20T03:55:02.763Z,11.24
2018-04-20T03:57:31.177Z,11.55
2018-04-20T04:00:01.800Z,11.56
2018-04-20T04:02:32.403Z,11.46
2018-04-20T04:05:00.832Z,11.32
2018-04-20T04:07:29.230Z,11.27
2018-04-20T04:09:59.782Z,11.39
2018-04-20T04:12:30.278Z,11.47
2018-04-20T04:15:00.814Z,11.44
2018-04-20T04:17:35.327Z,11.31
2018-04-20T04:20:11.944Z,11.34
2018-04-20T04:22:46.519Z,11.16
2018-04-20T04:25:21.065Z,11.09
2018-04-20T04:28:04.341Z,11.08
2018-04-20T04:30:32.795Z,11.41
2018-04-20T04:33:04.263Z,11.43
2018-04-20T04:35:32.724Z,11.35
2018-04-20T04:38:01.167Z,11.33
2018-04-20T04:40:31.845Z,11.32
2018-04-20T04:43:02.415Z,11.14
2018-04-20T04:45:30.830Z,11.06
2018-04-20T04:48:01.400Z,11.14
2018-04-20T04:50:32.003Z,11.10
2018-04-20T04:53:02.200Z,11.18
2018-04-20T04:55:30.627Z,11.18
2018-04-20T04:58:01.147Z,11.28
2018-04-20T05:00:31.787Z,11.36
2018-04-20T05:03:02.301Z,11.45
2018-04-20T05:05:30.731Z,11.65
2018-04-20T05:07:59.155Z,11.91
2018-04-20T05:10:27.579Z,12.13
2018-04-20T05:12:56.024Z,12.26
2018-04-20T05:15:24.528Z,12.43
2018-04-20T05:17:52.877Z,12.57
2018-04-20T05:20:21.278Z,12.67
2018-04-20T05:22:51.684Z,12.64
2018-04-20T05:25:20.079Z,12.78
2018-04-20T05:27:50.469Z,12.93
2018-04-20T05:30:22.625Z,13.07
2018-04-20T05:32:51.071Z,13.14
2018-04-20T05:35:19.499Z,13.26
2018-04-20T05:37:47.952Z,13.55
2018-04-20T05:40:16.503Z,13.75
2018-04-20T05:42:46.920Z,13.93
2018-04-20T05:45:18.416Z,14.09
2018-04-20T05:47:48.981Z,14.50
2018-04-20T05:50:17.427Z,14.83
2018-04-20T05:52:45.940Z,14.64
2018-04-20T05:55:16.538Z,14.72
2018-04-20T05:57:44.998Z,14.71
2018-04-20T06:00:13.447Z,14.98
2018-04-20T06:02:41.908Z,15.28
2018-04-20T06:05:15.854Z,15.34
2018-04-20T06:07:44.433Z,15.46
2018-04-20T06:10:16.296Z,15.73
2018-04-20T06:12:49.366Z,16.04
2018-04-20T06:15:17.811Z,16.20
2018-04-20T06:17:46.299Z,16.28
2018-04-20T06:20:14.765Z,16.56
2018-04-20T06:22:43.237Z,16.86
2018-04-20T06:25:11.727Z,17.37
2018-04-20T06:27:45.987Z,17.78
2018-04-20T06:30:14.439Z,17.87
2018-04-20T06:32:42.898Z,18.11
2018-04-20T06:35:11.323Z,18.40
2018-04-20T06:37:43.000Z,18.31
2018-04-20T06:40:11.963Z,18.75
2018-04-20T06:42:40.371Z,19.09
2018-04-20T06:45:08.840Z,19.67
2018-04-20T06:47:37.259Z,20.08
2018-04-20T06:50:05.666Z,20.51
2018-04-20T06:52:34.112Z,20.31
2018-04-20T06:55:02.549Z,20.60
2018-04-20T06:57:32.488Z,20.74
2018-04-20T07:00:00.929Z,21.33
2018-04-20T07:02:29.371Z,21.98
2018-04-20T07:04:57.791Z,22.47
2018-04-20T07:07:28.239Z,22.32
2018-04-20T07:09:58.050Z,22.57
2018-04-20T07:12:26.483Z,22.94
2018-04-20T07:14:54.942Z,23.18
2018-04-20T07:17:23.400Z,23.84
2018-04-20T07:19:51.908Z,23.55
2018-04-20T07:22:22.475Z,24.05
2018-04-20T07:24:51.119Z,24.64
2018-04-20T07:27:19.520Z,24.98
2018-04-20T07:29:49.366Z,25.24
2018-04-20T07:32:19.292Z,25.89
2018-04-20T07:34:49.708Z,26.72
2018-04-20T07:37:18.136Z,27.60
2018-04-20T07:39:48.037Z,28.13
2018-04-20T07:42:17.884Z,27.92
2018-04-20T07:44:46.284Z,27.89
2018-04-20T07:47:14.661Z,27.72
2018-04-20T07:49:43.059Z,27.37
2018-04-20T07:52:11.460Z,28.37
2018-04-20T07:54:39.879Z,28.31
2018-04-20T07:57:08.300Z,28.84
2018-04-20T07:59:38.939Z,29.98
2018-04-20T08:02:07.382Z,30.68
2018-04-20T08:04:35.819Z,30.90
2018-04-20T08:07:04.258Z,31.52
2018-04-20T08:09:32.692Z,32.15
2018-04-20T08:12:02.392Z,31.77
2018-04-20T08:14:30.820Z,31.85
2018-04-20T08:16:59.203Z,31.73
2018-04-20T08:19:27.605Z,32.07
2018-04-20T08:21:57.503Z,32.30
2018-04-20T08:24:28.290Z,32.29
2018-04-20T08:26:56.728Z,32.69
2018-04-20T08:29:25.162Z,33.30
2018-04-20T08:31:53.615Z,33.84
2018-04-20T08:34:21.986Z,34.76
2018-04-20T08:36:50.375Z,33.67
2018-04-20T08:39:18.789Z,34.28
2018-04-20T08:41:47.277Z,34.73
2018-04-20T08:44:17.995Z,35.15
2018-04-20T08:46:46.424Z,35.40
2018-04-20T08:49:14.859Z,35.08
2018-04-20T08:51:43.210Z,34.78
2018-04-20T08:54:11.663Z,35.13
2018-04-20T08:56:40.074Z,35.98
2018-04-20T08:59:08.615Z,36.54
2018-04-20T09:01:37.031Z,36.83
2018-04-20T09:04:05.428Z,36.41
2018-04-20T09:06:33.988Z,36.28
2018-04-20T09:09:05.015Z,35.93
2018-04-20T09:11:33.399Z,35.51
2018-04-20T09:14:02.500Z,36.04
2018-04-20T09:16:30.916Z,36.36
2018-04-20T09:18:59.307Z,36.51
2018-04-20T09:21:27.731Z,36.82
2018-04-20T09:23:57.191Z,36.79
2018-04-20T09:26:25.600Z,37.18
2018-04-20T09:28:54.036Z,37.28
2018-04-20T09:31:23.499Z,36.57
2018-04-20T09:33:51.862Z,36.63
2018-04-20T09:36:20.267Z,36.77
2018-04-20T09:38:48.650Z,37.66
2018-04-20T09:41:17.349Z,36.64
2018-04-20T09:43:46.839Z,36.38
2018-04-20T09:46:15.278Z,36.84
2018-04-20T09:48:43.658Z,37.15
2018-04-20T09:51:12.088Z,38.04
2018-04-20T09:53:40.504Z,37.62
2018-04-20T09:56:08.919Z,37.37
2018-04-20T09:58:38.490Z,37.30
2018-04-20T10:01:07.244Z,37.10
2018-04-20T10:03:35.673Z,37.84
2018-04-20T10:06:04.083Z,37.65
2018-04-20T10:08:32.568Z,37.37
2018-04-20T10:11:00.934Z,37.34
2018-04-20T10:13:30.655Z,37.29
2018-04-20T10:15:59.100Z,37.88
2018-04-20T10:18:27.550Z,38.16
2018-04-20T10:20:55.951Z,37.51
2018-04-20T10:23:25.448Z,37.72
2018-04-20T10:25:53.891Z,37.62
2018-04-20T10:28:22.375Z,37.44
2018-04-20T10:30:52.246Z,37.02
2018-04-20T10:33:20.656Z,37.30
2018-04-20T10:35:49.057Z,37.90
2018-04-20T10:38:17.449Z,38.12
2018-04-20T10:40:46.818Z,38.13
2018-04-20T10:43:16.639Z,37.96
2018-04-20T10:45:45.047Z,38.21
2018-04-20T10:48:13.436Z,38.25
2018-04-20T10:50:41.884Z,37.99
2018-04-20T10:53:10.298Z,37.35
2018-04-20T10:55:38.771Z,37.35
2018-04-20T10:58:07.153Z,37.48
2018-04-20T11:00:35.588Z,37.04
2018-04-20T11:03:03.995Z,36.77
2018-04-20T11:05:32.362Z,36.29
2018-04-20T11:08:00.780Z,35.52
2018-04-20T11:10:30.198Z,34.81
2018-04-20T11:12:58.587Z,34.73
2018-04-20T11:15:27.008Z,33.81
2018-04-20T11:17:55.469Z,33.53
2018-04-20T11:20:23.929Z,33.22
2018-04-20T11:22:52.347Z,33.19
2018-04-20T11:25:20.779Z,33.30
2018-04-20T11:27:49.213Z,33.30
2018-04-20T11:30:17.596Z,32.96
2018-04-20T11:32:46.999Z,32.69
2018-04-20T11:35:15.416Z,32.74
2018-04-20T11:37:43.892Z,32.21
2018-04-20T11:40:12.288Z,32.21
2018-04-20T11:42:41.702Z,31.70
2018-04-20T11:45:10.208Z,30.93
2018-04-20T11:47:38.836Z,30.67
2018-04-20T11:50:07.204Z,30.77
2018-04-20T11:52:35.595Z,29.80
2018-04-20T11:55:04.103Z,29.93
2018-04-20T11:57:32.483Z,30.04
2018-04-20T12:00:01.275Z,30.09
2018-04-20T12:02:29.682Z,30.07
2018-04-20T12:04:59.179Z,30.26
2018-04-20T12:07:28.914Z,30.30
2018-04-20T12:09:57.421Z,30.16
2018-04-20T12:12:25.851Z,29.68
2018-04-20T12:14:55.307Z,29.98
2018-04-20T12:17:24.733Z,29.98
2018-04-20T12:19:53.160Z,30.01
2018-04-20T12:22:21.595Z,29.92
2018-04-20T12:24:51.039Z,29.86
2018-04-20T12:27:19.519Z,29.81
2018-04-20T12:29:49.007Z,29.60
2018-04-20T12:32:17.404Z,29.50
2018-04-20T12:34:45.871Z,29.48
2018-04-20T12:37:14.604Z,29.66
2018-04-20T12:39:42.979Z,29.89
2018-04-20T12:42:11.849Z,29.88
2018-04-20T12:44:41.299Z,29.93
2018-04-20T12:47:09.676Z,29.95
2018-04-20T12:49:38.127Z,29.78
2018-04-20T12:52:06.548Z,29.80
2018-04-20T12:54:34.978Z,29.67
2018-04-20T12:57:04.402Z,29.27
2018-04-20T12:59:32.879Z,28.67
2018-04-20T13:02:01.287Z,28.78
2018-04-20T13:04:29.709Z,29.03
2018-04-20T13:06:58.207Z,29.01
2018-04-20T13:09:26.644Z,28.92
2018-04-20T13:11:55.184Z,28.92
2018-04-20T13:14:24.572Z,28.87
2018-04-20T13:16:52.942Z,28.80
2018-04-20T13:19:21.396Z,28.61
2018-04-20T13:21:50.903Z,28.69
2018-04-20T13:24:19.319Z,28.60
2018-04-20T13:26:47.764Z,28.38
2018-04-20T13:29:16.187Z,28.22
2018-04-20T13:31:44.615Z,28.15
2018-04-20T13:34:13.031Z,28.51
2018-04-20T13:36:41.499Z,28.39
2018-04-20T13:39:09.935Z,28.00
2018-04-20T13:41:38.471Z,27.97
2018-04-20T13:44:06.915Z,28.04
2018-04-20T13:46:36.361Z,28.01
2018-04-20T13:49:07.674Z,27.87
2018-04-20T13:51:36.108Z,28.03
2018-04-20T13:54:04.554Z,28.08
2018-04-20T13:56:34.527Z,28.00
2018-04-20T13:59:02.963Z,28.33
2018-04-20T14:01:31.379Z,28.21
2018-04-20T14:04:00.983Z,28.18
2018-04-20T14:06:29.407Z,28.12
2018-04-20T14:08:59.296Z,28.02
2018-04-20T14:11:27.998Z,28.13
2018-04-20T14:13:56.441Z,27.99
2018-04-20T14:16:26.295Z,27.97
2018-04-20T14:18:54.772Z,27.84
2018-04-20T14:21:23.167Z,27.82
2018-04-20T14:23:51.662Z,27.76
2018-04-20T14:26:21.551Z,27.81
2018-04-20T14:28:51.354Z,27.88
2018-04-20T14:31:19.801Z,27.76
2018-04-20T14:33:48.257Z,27.46
2018-04-20T14:36:16.663Z,27.36
2018-04-20T14:38:45.181Z,27.29
2018-04-20T14:41:13.589Z,27.37
2018-04-20T14:43:42.090Z,27.45
2018-04-20T14:46:11.968Z,27.53
2018-04-20T14:48:40.390Z,27.39
2018-04-20T14:51:08.807Z,27.41
2018-04-20T14:53:37.252Z,27.46
2018-04-20T14:56:05.664Z,27.43
2018-04-20T14:58:35.636Z,27.26
2018-04-20T15:01:04.139Z,27.36
2018-04-20T15:03:32.543Z,27.40
2018-04-20T15:06:00.974Z,27.22
2018-04-20T15:08:29.408Z,27.30
2018-04-20T15:10:57.888Z,27.34
2018-04-20T15:13:27.753Z,27.36
2018-04-20T15:15:56.171Z,27.36
2018-04-20T15:18:25.802Z,27.32
2018-04-20T15:20:55.681Z,27.18
2018-04-20T15:23:24.128Z,27.16
2018-04-20T15:25:53.872Z,27.01
2018-04-20T15:28:22.348Z,27.15
2018-04-20T15:30:56.825Z,27.03
2018-04-20T15:33:25.311Z,26.99
2018-04-20T15:35:53.723Z,26.98
2018-04-20T15:38:22.195Z,26.89
2018-04-20T15:40:52.315Z,26.94
2018-04-20T15:43:22.928Z,26.91
2018-04-20T15:45:51.388Z,26.98
2018-04-20T15:48:19.808Z,27.00
2018-04-20T15:50:48.280Z,26.94
2018-04-20T15:53:16.739Z,26.80
2018-04-20T15:55:45.144Z,26.75
2018-04-20T15:58:13.651Z,26.71
2018-04-20T16:00:42.073Z,26.68
2018-04-20T16:03:10.510Z,26.55
2018-04-20T16:05:38.943Z,26.57
2018-04-20T16:08:07.384Z,26.54
2018-04-20T16:10:37.823Z,26.55
2018-04-20T16:13:11.440Z,26.55
2018-04-20T16:15:39.928Z,26.42
2018-04-20T16:18:11.810Z,26.53
2018-04-20T16:20:40.299Z,26.46
2018-04-20T16:23:10.300Z,26.37
2018-04-20T16:25:42.594Z,26.22
2018-04-20T16:28:11.009Z,26.20
2018-04-20T16:30:39.423Z,26.16
2018-04-20T16:33:07.929Z,26.15
2018-04-20T16:35:36.348Z,26.13
2018-04-20T16:38:04.817Z,26.23
2018-04-20T16:40:33.304Z,26.10
2018-04-20T16:43:01.748Z,26.07
2018-04-20T16:45:30.173Z,25.95
2018-04-20T16:48:00.627Z,25.92
2018-04-20T16:50:29.168Z,25.97
2018-04-20T16:52:59.124Z,25.93
2018-04-20T16:55:27.595Z,25.75
2018-04-20T16:57:56.005Z,25.68
2018-04-20T17:00:24.455Z,25.64
2018-04-20T17:02:54.400Z,25.59
2018-04-20T17:05:22.803Z,25.63
2018-04-20T17:07:51.319Z,25.65
2018-04-20T17:10:21.718Z,25.62
2018-04-20T17:12:51.723Z,25.70
2018-04-20T17:15:24.183Z,25.57
2018-04-20T17:17:52.865Z,25.44
2018-04-20T17:20:21.292Z,25.46
2018-04-20T17:22:49.716Z,25.41
2018-04-20T17:25:20.151Z,25.33
2018-04-20T17:27:50.620Z,25.29
2018-04-20T17:30:19.062Z,25.32
2018-04-20T17:32:49.437Z,25.40
2018-04-20T17:35:20.063Z,25.21
2018-04-20T17:37:48.487Z,25.16
2018-04-20T17:40:16.916Z,25.21
2018-04-20T17:42:47.452Z,25.18
2018-04-20T17:45:18.018Z,25.09
2018-04-20T17:47:48.620Z,24.97
2018-04-20T17:50:17.015Z,24.90
2018-04-20T17:52:45.510Z,24.89
2018-04-20T17:55:13.939Z,24.92
2018-04-20T17:57:44.501Z,24.96
2018-04-20T18:00:14.981Z,24.92
2018-04-20T18:02:43.447Z,24.82
2018-04-20T18:05:11.951Z,24.92
2018-04-20T18:07:42.463Z,24.68
2018-04-20T18:10:13.104Z,24.66
2018-04-20T18:12:41.616Z,24.69
2018-04-20T18:15:12.078Z,24.38
2018-04-20T18:17:40.549Z,24.19
2018-04-20T18:20:08.978Z,23.92
2018-04-20T18:22:37.472Z,23.78
2018-04-20T18:25:08.048Z,23.61
2018-04-20T18:27:36.544Z,23.49
2018-04-20T18:30:04.988Z,23.38
2018-04-20T18:32:35.607Z,23.33
2018-04-20T18:35:04.071Z,23.20
2018-04-20T18:37:32.716Z,23.15
2018-04-20T18:40:01.169Z,22.91
2018-04-20T18:42:29.609Z,22.90
2018-04-20T18:45:00.157Z,22.79
2018-04-20T18:47:30.696Z,22.72
2018-04-20T18:50:01.418Z,22.70
2018-04-20T18:52:29.851Z,22.75
2018-04-20T18:54:58.275Z,22.60
2018-04-20T18:57:26.759Z,22.52
2018-04-20T18:59:57.264Z,22.53
2018-04-20T19:02:25.796Z,22.44
2018-04-20T19:04:54.257Z,22.40
2018-04-20T19:07:22.707Z,22.47
2018-04-20T19:09:52.944Z,22.50
2018-04-20T19:12:21.404Z,22.54
2018-04-20T19:14:51.807Z,22.57
2018-04-20T19:17:20.287Z,22.39
2018-04-20T19:19:48.742Z,22.09
2018-04-20T19:22:19.167Z,21.82
2018-04-20T19:24:47.612Z,21.59
2018-04-20T19:27:16.051Z,21.48
2018-04-20T19:29:44.529Z,21.55
2018-04-20T19:32:13.032Z,21.42
2018-04-20T19:34:41.441Z,21.28
2018-04-20T19:37:11.887Z,21.24
2018-04-20T19:39:42.400Z,21.10
2018-04-20T19:42:12.328Z,21.11
2018-04-20T19:44:40.866Z,20.98
2018-04-20T19:47:13.042Z,20.76
2018-04-20T19:49:41.528Z,20.80
2018-04-20T19:52:12.169Z,20.74
2018-04-20T19:54:42.675Z,20.65
2018-04-20T19:57:11.190Z,20.56
2018-04-20T19:59:39.649Z,20.55
2018-04-20T20:02:08.103Z,20.46
2018-04-20T20:04:36.536Z,20.46
2018-04-20T20:07:07.150Z,20.41
2018-04-20T20:09:35.668Z,20.32
2018-04-20T20:12:06.259Z,20.16
2018-04-20T20:14:34.716Z,20.09
2018-04-20T20:17:03.178Z,19.96
2018-04-20T20:19:31.635Z,19.94
2018-04-20T20:22:00.076Z,19.84
2018-04-20T20:24:28.534Z,19.71
2018-04-20T20:26:57.161Z,19.74
2018-04-20T20:29:27.722Z,19.85
2018-04-20T20:31:56.175Z,19.63
2018-04-20T20:34:24.653Z,19.50
2018-04-20T20:36:53.071Z,19.19
2018-04-20T20:39:21.516Z,19.18
2018-04-20T20:41:49.965Z,19.18
2018-04-20T20:44:18.424Z,19.06
2018-04-20T20:46:46.900Z,19.01
2018-04-20T20:49:17.489Z,18.86
2018-04-20T20:51:45.995Z,18.81
2018-04-20T20:54:18.622Z,18.76
2018-04-20T20:56:49.151Z,18.72
2018-04-20T20:59:17.644Z,18.73
2018-04-20T21:01:46.171Z,18.83
2018-04-20T21:04:14.607Z,18.75
2018-04-20T21:06:43.069Z,18.99
2018-04-20T21:09:11.532Z,18.82
2018-04-20T21:11:39.958Z,18.66
2018-04-20T21:14:08.448Z,18.57
2018-04-20T21:16:36.903Z,18.78
2018-04-20T21:19:07.471Z,18.51
2018-04-20T21:21:35.941Z,18.11
2018-04-20T21:24:04.412Z,18.00
2018-04-20T21:26:32.844Z,17.91
2018-04-20T21:29:01.302Z,17.78
2018-04-20T21:31:29.736Z,17.75
2018-04-20T21:33:59.382Z,18.00
2018-04-20T21:36:26.570Z,17.82
2018-04-20T21:38:55.018Z,17.86
2018-04-20T21:41:25.576Z,17.67
2018-04-20T21:43:54.025Z,17.61
2018-04-20T21:46:22.451Z,17.60
2018-04-20T21:48:50.955Z,17.70
2018-04-20T21:51:19.381Z,17.70
2018-04-20T21:53:47.824Z,17.58
2018-04-20T21:56:16.295Z,17.54
2018-04-20T21:58:46.877Z,17.40
2018-04-20T22:01:17.540Z,17.35
2018-04-20T22:03:45.973Z,17.29
2018-04-20T22:06:16.512Z,17.66
2018-04-20T22:08:44.971Z,17.38
2018-04-20T22:11:13.416Z,17.33
2018-04-20T22:13:41.885Z,17.25
2018-04-20T22:16:10.291Z,17.41
2018-04-20T22:18:38.756Z,17.18
2018-04-20T22:21:09.246Z,17.20
2018-04-20T22:23:37.711Z,17.18
2018-04-20T22:26:06.163Z,16.82
2018-04-20T22:28:34.659Z,16.79
2018-04-20T22:31:03.108Z,16.98
2018-04-20T22:33:33.689Z,16.76
2018-04-20T22:36:02.141Z,16.56
2018-04-20T22:38:30.598Z,16.51
2018-04-20T22:40:59.019Z,16.30
2018-04-20T22:43:29.516Z,16.37
2018-04-20T22:45:57.980Z,16.48
2018-04-20T22:48:26.447Z,16.60
2018-04-20T22:50:56.959Z,16.46
2018-04-20T22:53:25.429Z,16.49
2018-04-20T22:55:54.055Z,16.38
2018-04-20T22:58:22.463Z,16.35
2018-04-20T23:00:53.009Z,16.18
2018-04-20T23:03:21.484Z,16.21
2018-04-20T23:05:52.075Z,16.16
2018-04-20T23:08:20.539Z,16.05
2018-04-20T23:10:51.083Z,16.04
2018-04-20T23:13:19.516Z,16.12
2018-04-20T23:15:47.955Z,16.14
2018-04-20T23:18:16.427Z,16.11
2018-04-20T23:20:44.855Z,15.92
2018-04-20T23:23:13.279Z,15.91
2018-04-20T23:25:41.744Z,15.84
2018-04-20T23:28:10.150Z,15.78
2018-04-20T23:30:38.612Z,15.90
2018-04-20T23:33:09.227Z,15.86
2018-04-20T23:35:39.838Z,16.07
2018-04-20T23:38:08.238Z,16.07
2018-04-20T23:40:36.831Z,15.97
2018-04-20T23:43:05.229Z,15.86
2018-04-20T23:45:33.640Z,15.81
2018-04-20T23:48:04.283Z,15.63
2018-04-20T23:50:32.928Z,15.75
2018-04-20T23:53:01.296Z,15.76
2018-04-20T23:55:31.855Z,15.71
2018-04-20T23:58:00.598Z,15.60
